createdAt,value
2019-02-28T00:02:01.117Z,92.50
2019-02-28T00:04:32.818Z,92.50
2019-02-28T00:07:02.234Z,92.40
2019-02-28T00:09:31.108Z,92.20
2019-02-28T00:12:00.221Z,92.10
2019-02-28T00:14:28.949Z,92.10
2019-02-28T00:16:57.807Z,91.90
2019-02-28T00:19:26.617Z,91.90
2019-02-28T00:21:55.448Z,91.80
2019-02-28T00:24:27.164Z,91.80
2019-02-28T00:26:54.874Z,91.70
2019-02-28T00:29:23.703Z,91.50
2019-02-28T00:31:53.879Z,91.50
2019-02-28T00:34:22.783Z,91.50
2019-02-28T00:36:53.371Z,91.50
2019-02-28T00:39:22.003Z,91.40
2019-02-28T00:41:50.718Z,91.30
2019-02-28T00:44:19.497Z,91.20
2019-02-28T00:46:48.214Z,91.10
2019-02-28T00:49:17.195Z,91.00
2019-02-28T00:51:46.037Z,91.00
2019-02-28T00:54:14.769Z,90.80
2019-02-28T00:56:43.605Z,90.70
2019-02-28T00:59:12.390Z,90.70
2019-02-28T01:01:43.114Z,90.60
2019-02-28T01:04:11.825Z,90.40
2019-02-28T01:06:41.742Z,90.30
2019-02-28T01:09:10.947Z,90.10
2019-02-28T01:11:39.719Z,90.00
2019-02-28T01:14:10.489Z,90.00
2019-02-28T01:16:38.875Z,89.80
2019-02-28T01:19:11.475Z,89.90
2019-02-28T01:21:40.305Z,89.80
2019-02-28T01:24:09.152Z,90.00
2019-02-28T01:26:37.808Z,90.00
2019-02-28T01:29:06.635Z,89.80
2019-02-28T01:31:35.315Z,90.00
2019-02-28T01:34:04.240Z,90.00
2019-02-28T01:36:32.971Z,89.80
2019-02-28T01:39:01.877Z,89.60
2019-02-28T01:41:30.883Z,89.40
2019-02-28T01:44:01.737Z,89.20
2019-02-28T01:46:31.234Z,89.40
2019-02-28T01:49:01.267Z,89.20
2019-02-28T01:51:35.729Z,89.10
2019-02-28T01:54:00.411Z,88.90
2019-02-28T01:56:29.394Z,88.40
2019-02-28T01:58:58.163Z,88.40
2019-02-28T02:01:30.974Z,88.40
2019-02-28T02:03:59.363Z,88.50
2019-02-28T02:06:30.122Z,89.10
2019-02-28T02:09:02.465Z,87.90
2019-02-28T02:11:31.606Z,87.80
2019-02-28T02:14:00.415Z,87.50
2019-02-28T02:16:34.767Z,87.30
2019-02-28T02:19:21.858Z,87.00
2019-02-28T02:21:55.821Z,87.10
2019-02-28T02:24:35.753Z,86.80
2019-02-28T02:27:08.014Z,86.50
2019-02-28T02:29:37.117Z,86.10
2019-02-28T02:32:06.369Z,86.20
2019-02-28T02:34:35.184Z,85.80
2019-02-28T02:37:03.984Z,85.30
2019-02-28T02:39:32.638Z,85.20
2019-02-28T02:42:01.367Z,85.20
2019-02-28T02:44:31.768Z,84.80
2019-02-28T02:47:00.589Z,84.90
2019-02-28T02:49:29.238Z,84.60
2019-02-28T02:51:57.996Z,84.50
2019-02-28T02:54:28.524Z,84.50
2019-02-28T02:56:57.307Z,84.30
2019-02-28T02:59:25.936Z,84.00
2019-02-28T03:01:56.204Z,83.80
2019-02-28T03:04:25.111Z,83.60
2019-02-28T03:06:53.918Z,84.00
2019-02-28T03:09:22.663Z,83.90
2019-02-28T03:11:51.374Z,83.90
2019-02-28T03:14:20.221Z,84.00
2019-02-28T03:16:49.143Z,84.00
2019-02-28T03:19:17.942Z,83.90
2019-02-28T03:21:51.639Z,84.10
2019-02-28T03:24:17.184Z,83.90
2019-02-28T03:26:45.975Z,83.40
2019-02-28T03:29:14.923Z,83.40
2019-02-28T03:31:54.547Z,83.10
2019-02-28T03:34:14.434Z,83.10
2019-02-28T03:36:43.376Z,82.80
2019-02-28T03:39:13.925Z,82.60
2019-02-28T03:41:42.781Z,82.50
2019-02-28T03:44:20.063Z,82.30
2019-02-28T03:46:46.465Z,82.30
2019-02-28T03:49:12.703Z,82.30
2019-02-28T03:51:41.697Z,82.60
2019-02-28T03:54:10.442Z,82.90
2019-02-28T03:56:39.136Z,83.20
2019-02-28T03:59:08.184Z,83.80
2019-02-28T04:01:37.003Z,84.00
2019-02-28T04:04:10.945Z,84.30
2019-02-28T04:06:40.842Z,84.50
2019-02-28T04:09:08.425Z,84.90
2019-02-28T04:11:38.663Z,85.00
2019-02-28T04:14:12.003Z,85.00
2019-02-28T04:16:40.802Z,84.70
2019-02-28T04:19:10.600Z,85.00
2019-02-28T04:21:46.266Z,85.30
2019-02-28T04:24:13.830Z,85.40
2019-02-28T04:26:42.306Z,85.30
2019-02-28T04:29:12.856Z,85.60
2019-02-28T04:31:41.750Z,84.90
2019-02-28T04:34:13.397Z,85.80
2019-02-28T04:36:41.148Z,86.00
2019-02-28T04:39:09.920Z,86.40
2019-02-28T04:41:38.575Z,86.60
2019-02-28T04:44:07.290Z,86.30
2019-02-28T04:46:37.499Z,86.30
2019-02-28T04:49:06.084Z,86.50
2019-02-28T04:51:37.100Z,86.20
2019-02-28T04:54:05.247Z,86.50
2019-02-28T04:56:34.126Z,86.40
2019-02-28T04:59:02.935Z,86.50
2019-02-28T05:01:31.570Z,86.30
2019-02-28T05:04:02.342Z,86.50
2019-02-28T05:06:30.597Z,86.60
2019-02-28T05:08:59.270Z,86.70
2019-02-28T05:11:30.729Z,86.50
2019-02-28T05:13:58.508Z,86.60
2019-02-28T05:16:27.216Z,86.60
2019-02-28T05:18:58.294Z,86.60
2019-02-28T05:21:26.360Z,86.40
2019-02-28T05:23:55.176Z,86.70
2019-02-28T05:26:26.278Z,87.00
2019-02-28T05:28:54.652Z,87.20
2019-02-28T05:31:24.191Z,87.30
2019-02-28T05:33:54.026Z,87.50
2019-02-28T05:36:22.785Z,87.20
2019-02-28T05:38:53.596Z,87.10
2019-02-28T05:41:23.586Z,87.00
2019-02-28T05:43:53.445Z,86.80
2019-02-28T05:46:23.646Z,86.50
2019-02-28T05:48:52.507Z,86.50
2019-02-28T05:51:24.812Z,86.00
2019-02-28T05:53:51.884Z,85.70
2019-02-28T05:56:27.140Z,85.30
2019-02-28T05:58:56.230Z,85.20
2019-02-28T06:01:36.756Z,84.80
2019-02-28T06:04:05.474Z,84.60
2019-02-28T06:06:37.686Z,84.00
2019-02-28T06:09:06.636Z,83.30
2019-02-28T06:11:37.036Z,83.00
2019-02-28T06:14:10.662Z,82.90
2019-02-28T06:16:39.419Z,82.60
2019-02-28T06:19:30.116Z,82.40
2019-02-28T06:21:59.513Z,82.80
2019-02-28T06:24:29.098Z,81.90
2019-02-28T06:26:57.887Z,81.80
2019-02-28T06:29:55.620Z,81.30
2019-02-28T06:32:28.618Z,80.90
2019-02-28T06:34:57.408Z,80.30
2019-02-28T06:37:26.218Z,79.80
2019-02-28T06:39:54.902Z,79.20
2019-02-28T06:42:23.699Z,78.10
2019-02-28T06:44:52.757Z,77.70
2019-02-28T06:47:21.572Z,76.80
2019-02-28T06:49:53.403Z,76.00
2019-02-28T06:52:34.112Z,76.00
2019-02-28T06:55:03.515Z,75.60
2019-02-28T06:57:33.062Z,74.90
2019-02-28T07:00:02.145Z,74.60
2019-02-28T07:02:31.423Z,73.80
2019-02-28T07:05:02.282Z,73.00
2019-02-28T07:07:31.050Z,72.00
2019-02-28T07:09:59.904Z,71.80
2019-02-28T07:12:29.905Z,71.80
2019-02-28T07:14:58.968Z,71.70
2019-02-28T07:17:27.755Z,71.60
2019-02-28T07:20:01.310Z,71.60
2019-02-28T07:22:27.017Z,70.00
2019-02-28T07:24:55.803Z,67.60
2019-02-28T07:27:26.696Z,64.50
2019-02-28T07:29:55.253Z,61.80
2019-02-28T07:32:26.103Z,61.10
2019-02-28T07:34:55.022Z,59.30
2019-02-28T07:37:27.333Z,58.40
2019-02-28T07:39:57.824Z,55.40
2019-02-28T07:42:26.595Z,53.30
2019-02-28T07:44:58.079Z,52.40
2019-02-28T07:47:25.691Z,52.50
2019-02-28T07:49:54.396Z,50.60
2019-02-28T07:52:23.767Z,49.60
2019-02-28T07:54:55.654Z,48.50
2019-02-28T07:57:23.071Z,50.90
2019-02-28T07:59:51.829Z,51.70
2019-02-28T08:02:20.618Z,50.50
2019-02-28T08:04:50.735Z,50.30
2019-02-28T08:07:20.136Z,49.40
2019-02-28T08:09:49.077Z,47.90
2019-02-28T08:12:17.820Z,44.80
2019-02-28T08:14:47.078Z,42.80
2019-02-28T08:17:18.323Z,40.90
2019-02-28T08:19:50.167Z,39.90
2019-02-28T08:22:23.243Z,40.50
2019-02-28T08:24:52.095Z,39.70
2019-02-28T08:27:25.431Z,37.80
2019-02-28T08:29:57.643Z,37.70
2019-02-28T08:32:26.350Z,39.00
2019-02-28T08:34:55.575Z,40.60
2019-02-28T08:37:25.689Z,42.50
2019-02-28T08:39:56.503Z,42.30
2019-02-28T08:42:25.089Z,42.80
2019-02-28T08:44:58.146Z,42.50
2019-02-28T08:47:27.030Z,42.80
2019-02-28T08:49:55.828Z,43.40
2019-02-28T08:52:27.976Z,42.00
2019-02-28T08:54:56.701Z,40.40
2019-02-28T08:57:26.449Z,39.90
2019-02-28T08:59:56.336Z,38.80
2019-02-28T09:02:26.124Z,38.50
2019-02-28T09:04:54.777Z,39.20
2019-02-28T09:07:23.747Z,38.80
2019-02-28T09:09:55.409Z,38.90
2019-02-28T09:12:24.191Z,37.70
2019-02-28T09:14:55.346Z,37.60
2019-02-28T09:17:23.533Z,37.90
2019-02-28T09:19:56.325Z,39.40
2019-02-28T09:22:27.476Z,39.10
2019-02-28T09:24:55.845Z,39.00
2019-02-28T09:27:24.557Z,40.60
2019-02-28T09:29:54.747Z,41.10
2019-02-28T09:32:23.653Z,41.50
2019-02-28T09:34:52.524Z,41.00
2019-02-28T09:37:23.254Z,40.80
2019-02-28T09:39:58.009Z,41.10
2019-02-28T09:42:27.930Z,39.60
2019-02-28T09:44:58.555Z,39.50
2019-02-28T09:47:27.504Z,38.80
2019-02-28T09:49:56.472Z,39.80
2019-02-28T09:52:28.189Z,38.60
2019-02-28T09:55:00.696Z,37.40
2019-02-28T09:57:30.942Z,38.80
2019-02-28T10:00:06.068Z,38.70
2019-02-28T10:02:35.276Z,38.70
2019-02-28T10:05:08.214Z,38.70
2019-02-28T10:07:37.029Z,40.10
2019-02-28T10:10:20.499Z,41.80
2019-02-28T10:12:47.988Z,40.80
2019-02-28T10:15:18.537Z,38.80
2019-02-28T10:18:04.392Z,38.50
2019-02-28T10:20:37.656Z,40.00
2019-02-28T10:23:09.078Z,41.30
2019-02-28T10:25:43.280Z,43.00
2019-02-28T10:28:08.678Z,42.50
2019-02-28T10:30:37.548Z,41.30
2019-02-28T10:33:07.281Z,40.40
2019-02-28T10:35:36.765Z,40.90
2019-02-28T10:38:06.577Z,42.90
2019-02-28T10:40:35.463Z,43.10
2019-02-28T10:43:04.250Z,43.50
2019-02-28T10:45:33.221Z,43.00
2019-02-28T10:48:03.950Z,41.90
2019-02-28T10:50:37.478Z,41.20
2019-02-28T10:53:06.326Z,40.70
2019-02-28T10:55:35.101Z,41.50
2019-02-28T10:58:04.254Z,43.20
2019-02-28T11:00:36.494Z,44.20
2019-02-28T11:03:05.343Z,43.80
2019-02-28T11:05:38.592Z,43.70
2019-02-28T11:08:09.733Z,42.40
2019-02-28T11:10:43.761Z,42.20
2019-02-28T11:13:14.861Z,41.30
2019-02-28T11:15:48.025Z,41.00
2019-02-28T11:18:17.354Z,42.00
2019-02-28T11:20:46.245Z,41.10
2019-02-28T11:23:15.870Z,39.90
2019-02-28T11:25:45.026Z,40.80
2019-02-28T11:28:36.794Z,40.50
2019-02-28T11:31:05.884Z,40.20
2019-02-28T11:33:36.437Z,40.20
2019-02-28T11:36:05.147Z,40.40
2019-02-28T11:38:34.061Z,40.00
2019-02-28T11:41:02.898Z,40.50
2019-02-28T11:43:37.217Z,41.40
2019-02-28T11:46:03.472Z,41.40
2019-02-28T11:48:33.169Z,40.50
2019-02-28T11:51:01.981Z,40.20
2019-02-28T11:53:30.833Z,41.00
2019-02-28T11:56:00.629Z,41.70
2019-02-28T11:58:52.662Z,41.80
2019-02-28T12:01:24.239Z,43.50
2019-02-28T12:03:52.990Z,43.70
2019-02-28T12:06:22.415Z,43.20
2019-02-28T12:08:52.065Z,43.00
2019-02-28T12:11:20.910Z,43.20
2019-02-28T12:13:51.602Z,43.00
2019-02-28T12:16:20.293Z,42.20
2019-02-28T12:22:30.337Z,43.70
2019-02-28T12:24:58.962Z,44.20
2019-02-28T12:27:28.253Z,44.80
2019-02-28T12:29:58.701Z,44.00
2019-02-28T12:32:28.925Z,43.30
2019-02-28T12:35:01.274Z,43.70
2019-02-28T12:37:28.314Z,44.50
2019-02-28T12:40:00.645Z,44.50
2019-02-28T12:42:31.677Z,43.50
2019-02-28T12:45:00.244Z,41.50
2019-02-28T12:47:30.647Z,43.60
2019-02-28T12:49:59.585Z,44.20
2019-02-28T12:52:28.424Z,45.20
2019-02-28T12:54:58.235Z,46.00
2019-02-28T12:57:27.127Z,45.50
2019-02-28T12:59:55.929Z,45.10
2019-02-28T13:02:24.704Z,44.40
2019-02-28T13:04:56.562Z,43.80
2019-02-28T13:07:25.583Z,43.30
2019-02-28T13:09:54.288Z,43.20
2019-02-28T13:12:23.028Z,43.00
2019-02-28T13:14:52.023Z,43.40
2019-02-28T13:17:20.848Z,43.50
2019-02-28T13:19:53.209Z,43.80
2019-02-28T13:22:23.321Z,43.70
2019-02-28T13:24:52.468Z,42.70
2019-02-28T13:27:21.268Z,42.50
2019-02-28T13:29:50.139Z,41.90
2019-02-28T13:32:19.940Z,40.80
2019-02-28T13:34:48.849Z,41.90
2019-02-28T13:37:17.650Z,42.60
2019-02-28T13:39:46.451Z,43.80
2019-02-28T13:42:15.294Z,45.50
2019-02-28T13:44:44.032Z,46.00
2019-02-28T13:47:12.802Z,45.00
2019-02-28T13:49:41.485Z,42.80
2019-02-28T13:52:18.791Z,44.80
2019-02-28T13:54:42.239Z,46.40
2019-02-28T13:57:11.133Z,48.40
2019-02-28T13:59:39.807Z,51.00
2019-02-28T14:02:08.668Z,53.20
2019-02-28T14:04:38.919Z,55.70
2019-02-28T14:07:07.922Z,57.60
2019-02-28T14:09:40.086Z,58.90
2019-02-28T14:12:08.996Z,60.40
2019-02-28T14:14:38.967Z,60.20
2019-02-28T14:17:08.071Z,58.40
2019-02-28T14:19:36.909Z,56.20
2019-02-28T14:22:08.567Z,54.00
2019-02-28T14:24:37.205Z,53.80
2019-02-28T14:27:06.041Z,51.70
2019-02-28T14:29:34.749Z,51.10
2019-02-28T14:32:04.631Z,50.60
2019-02-28T14:37:30.020Z,53.80
2019-02-28T14:39:58.846Z,56.50
2019-02-28T14:42:27.631Z,57.70
2019-02-28T14:44:56.461Z,58.80
2019-02-28T14:47:28.446Z,58.60
2019-02-28T14:49:59.057Z,58.00
2019-02-28T14:52:28.752Z,58.00
2019-02-28T14:54:58.320Z,58.20
2019-02-28T14:57:27.150Z,59.00
2019-02-28T14:59:57.399Z,61.30
2019-02-28T15:02:28.741Z,62.90
2019-02-28T15:04:56.527Z,64.10
2019-02-28T15:07:25.164Z,65.90
2019-02-28T15:09:53.888Z,66.80
2019-02-28T15:12:23.435Z,67.30
2019-02-28T15:14:53.245Z,68.40
2019-02-28T15:17:22.107Z,68.90
2019-02-28T15:19:50.819Z,69.20
2019-02-28T15:22:21.220Z,68.90
2019-02-28T15:24:50.035Z,69.20
2019-02-28T15:27:18.852Z,68.70
2019-02-28T15:29:47.672Z,69.20
2019-02-28T15:32:17.190Z,68.50
2019-02-28T15:34:47.067Z,69.10
2019-02-28T15:37:15.750Z,70.30
2019-02-28T15:39:44.672Z,70.70
2019-02-28T15:42:13.406Z,71.40
2019-02-28T15:44:42.197Z,71.00
2019-02-28T15:47:10.895Z,71.10
2019-02-28T15:49:41.786Z,71.60
2019-02-28T15:52:10.327Z,72.30
2019-02-28T15:54:38.955Z,73.10
2019-02-28T15:57:08.790Z,74.90
2019-02-28T15:59:37.486Z,74.50
2019-02-28T16:02:07.143Z,75.00
2019-02-28T16:04:36.112Z,74.30
2019-02-28T16:07:05.023Z,73.90
2019-02-28T16:09:33.983Z,73.90
2019-02-28T16:12:03.980Z,73.20
2019-02-28T16:14:34.766Z,73.20
2019-02-28T16:17:04.623Z,73.40
2019-02-28T16:19:33.328Z,73.90
2019-02-28T16:22:02.245Z,74.20
2019-02-28T16:24:31.034Z,74.50
2019-02-28T16:26:59.833Z,75.10
2019-02-28T16:29:28.705Z,75.20
2019-02-28T16:32:17.944Z,74.90
2019-02-28T16:34:47.815Z,75.10
2019-02-28T16:37:16.594Z,75.00
2019-02-28T16:39:45.385Z,75.20
2019-02-28T16:42:14.435Z,75.60
2019-02-28T16:44:43.440Z,75.50
2019-02-28T16:47:12.394Z,75.50
2019-02-28T16:49:59.660Z,75.90
2019-02-28T16:52:31.503Z,75.90
2019-02-28T16:55:04.068Z,77.20
2019-02-28T16:57:32.435Z,76.90
2019-02-28T17:00:04.056Z,77.30
2019-02-28T17:02:50.781Z,77.50
2019-02-28T17:05:23.446Z,77.70
2019-02-28T17:07:50.928Z,78.10
2019-02-28T17:10:35.816Z,78.30
2019-02-28T17:13:09.328Z,78.70
2019-02-28T17:15:47.361Z,78.80
2019-02-28T17:18:18.404Z,79.20
2019-02-28T17:20:58.103Z,79.40
2019-02-28T17:23:28.876Z,79.50
2019-02-28T17:26:11.719Z,79.80
2019-02-28T17:28:42.287Z,80.10
2019-02-28T17:31:17.687Z,80.00
2019-02-28T17:33:47.798Z,80.10
2019-02-28T17:36:16.751Z,80.30
2019-02-28T17:38:55.701Z,80.40
2019-02-28T17:41:24.528Z,80.50
2019-02-28T17:44:27.000Z,81.30
2019-02-28T17:47:16.912Z,80.70
2019-02-28T17:50:17.006Z,81.30
2019-02-28T17:53:10.376Z,81.50
2019-02-28T17:56:22.621Z,81.90
2019-02-28T17:58:55.841Z,82.30
2019-02-28T18:01:46.674Z,82.70
2019-02-28T18:04:42.486Z,83.50
2019-02-28T18:07:23.706Z,84.50
2019-02-28T18:10:02.230Z,85.90
2019-02-28T18:13:09.688Z,85.50
2019-02-28T18:15:50.753Z,85.90
2019-02-28T18:18:33.351Z,86.10
2019-02-28T18:21:10.329Z,86.40
2019-02-28T18:24:04.303Z,86.50
2019-02-28T18:26:53.961Z,87.00
2019-02-28T18:29:50.035Z,87.30
2019-02-28T18:32:22.381Z,87.50
2019-02-28T18:34:52.685Z,87.60
2019-02-28T18:37:24.533Z,87.80
2019-02-28T18:39:52.364Z,88.40
2019-02-28T18:42:21.347Z,88.20
2019-02-28T18:44:50.367Z,88.70
2019-02-28T18:47:19.272Z,88.70
2019-02-28T18:49:48.293Z,89.00
2019-02-28T18:52:31.874Z,89.20
2019-02-28T18:55:06.121Z,89.40
2019-02-28T18:57:31.324Z,89.80
2019-02-28T19:00:01.779Z,90.00
2019-02-28T19:02:38.542Z,90.10
2019-02-28T19:05:13.867Z,90.20
2019-02-28T19:07:42.714Z,90.30
2019-02-28T19:10:11.561Z,90.60
2019-02-28T19:12:40.401Z,90.70
2019-02-28T19:15:12.286Z,90.80
2019-02-28T19:17:41.179Z,90.70
2019-02-28T19:20:12.186Z,90.80
2019-02-28T19:22:41.169Z,90.80
2019-02-28T19:25:11.794Z,90.70
2019-02-28T19:27:42.636Z,90.50
2019-02-28T19:30:15.809Z,90.40
2019-02-28T19:32:44.687Z,90.30
2019-02-28T19:35:16.332Z,90.20
2019-02-28T19:37:45.117Z,90.30
2019-02-28T19:40:14.551Z,90.00
2019-02-28T19:42:43.594Z,90.00
2019-02-28T19:45:27.358Z,89.50
2019-02-28T19:47:57.179Z,89.80
2019-02-28T19:50:28.374Z,89.40
2019-02-28T19:52:59.083Z,86.60
2019-02-28T19:55:30.665Z,84.10
2019-02-28T20:01:27.473Z,75.80
2019-02-28T20:03:57.944Z,73.50
2019-02-28T20:06:29.412Z,72.70
2019-02-28T20:08:58.294Z,70.10
2019-02-28T20:11:27.064Z,70.50
2019-02-28T20:13:59.897Z,69.10
2019-02-28T20:16:28.812Z,68.40
2019-02-28T20:19:06.111Z,67.80
2019-02-28T20:21:49.153Z,67.70
2019-02-28T20:24:17.823Z,68.00
2019-02-28T20:26:46.773Z,68.60
2019-02-28T20:29:15.725Z,68.50
2019-02-28T20:31:44.666Z,68.70
2019-02-28T20:34:13.458Z,69.60
2019-02-28T20:36:43.103Z,69.80
2019-02-28T20:39:13.926Z,70.70
2019-02-28T20:41:42.842Z,71.00
2019-02-28T20:44:11.564Z,70.00
2019-02-28T20:46:40.500Z,69.60
2019-02-28T20:49:10.468Z,69.60
2019-02-28T20:51:39.725Z,69.60
2019-02-28T20:54:08.657Z,68.70
2019-02-28T20:56:40.422Z,68.10
2019-02-28T20:59:10.280Z,68.30
2019-02-28T21:01:40.192Z,68.90
2019-02-28T21:04:10.886Z,69.20
2019-02-28T21:06:41.748Z,69.20
2019-02-28T21:09:15.040Z,69.50
2019-02-28T21:11:43.943Z,70.50
2019-02-28T21:14:12.844Z,70.70
2019-02-28T21:16:41.629Z,71.30
2019-02-28T21:19:10.582Z,71.50
2019-02-28T21:21:49.509Z,71.80
2019-02-28T21:24:16.623Z,71.90
2019-02-28T21:26:45.586Z,72.30
2019-02-28T21:29:35.953Z,72.80
2019-02-28T21:32:04.950Z,73.00
2019-02-28T21:34:35.102Z,73.80
2019-02-28T21:37:05.706Z,74.10
2019-02-28T21:39:34.573Z,74.60
2019-02-28T21:53:53.229Z,77.60
2019-02-28T21:56:22.188Z,77.90
2019-02-28T21:58:50.932Z,78.60
2019-02-28T22:01:19.735Z,78.80
2019-02-28T22:03:48.479Z,79.40
2019-02-28T22:06:17.299Z,79.70
2019-02-28T22:08:51.567Z,80.10
2019-02-28T22:11:20.551Z,80.30
2019-02-28T22:13:51.610Z,80.80
2019-02-28T22:16:24.933Z,81.20
2019-02-28T22:18:53.764Z,81.60
2019-02-28T22:21:24.591Z,82.00
2019-02-28T22:23:53.689Z,82.80
2019-02-28T22:26:22.469Z,83.30
2019-02-28T22:28:54.132Z,84.50
2019-02-28T22:31:39.599Z,86.50
2019-02-28T22:34:15.906Z,88.10
2019-02-28T22:36:44.895Z,89.70
2019-02-28T22:39:13.816Z,90.80
2019-02-28T22:41:42.671Z,91.60
2019-02-28T22:44:11.698Z,92.30
2019-02-28T22:46:41.501Z,93.00
2019-02-28T22:49:10.238Z,93.60
2019-02-28T22:51:38.981Z,94.20
2019-02-28T22:54:09.663Z,94.50
2019-02-28T22:56:38.386Z,95.00
2019-02-28T22:59:07.248Z,95.30
2019-02-28T23:01:36.889Z,95.50
2019-02-28T23:04:23.466Z,95.80
2019-02-28T23:07:28.578Z,95.90
2019-02-28T23:09:59.543Z,96.10
2019-02-28T23:12:28.095Z,96.20
2019-02-28T23:14:56.875Z,96.30
2019-02-28T23:17:25.632Z,96.50
2019-02-28T23:19:54.574Z,96.40
2019-02-28T23:22:24.405Z,96.50
2019-02-28T23:24:53.241Z,96.60
2019-02-28T23:27:22.049Z,96.70
2019-02-28T23:29:53.832Z,96.70
2019-02-28T23:32:31.257Z,96.80
2019-02-28T23:35:00.037Z,96.80
2019-02-28T23:37:33.207Z,96.90
2019-02-28T23:40:02.005Z,97.10
2019-02-28T23:42:30.803Z,97.30
2019-02-28T23:45:00.473Z,97.30
2019-02-28T23:47:29.231Z,97.50
2019-02-28T23:49:57.919Z,97.50
2019-02-28T23:52:26.511Z,97.60
2019-02-28T23:54:55.407Z,97.70
2019-02-28T23:57:24.171Z,97.80
2019-02-28T23:59:52.839Z,97.80
